createdAt,value
2023-01-09T00:01:45.389Z,95391.38
2023-01-09T00:04:15.392Z,95406.94
2023-01-09T00:06:46.542Z,95400.13
2023-01-09T00:09:16.795Z,95404.78
2023-01-09T00:11:45.676Z,95411.69
2023-01-09T00:14:14.395Z,95420.13
2023-01-09T00:16:43.982Z,95420.72
2023-01-09T00:19:13.215Z,95414.03
2023-01-09T00:21:47.525Z,95415.31
2023-01-09T00:24:17.641Z,95422.69
2023-01-09T00:26:46.349Z,95427.94
2023-01-09T00:29:15.731Z,95433.72
2023-01-09T00:31:44.623Z,95434.53
2023-01-09T00:34:13.423Z,95437.75
2023-01-09T00:36:42.932Z,95448.28
2023-01-09T00:39:14.884Z,95453.59
2023-01-09T00:41:48.080Z,95450.84
2023-01-09T00:44:20.654Z,95446.69
2023-01-09T00:46:53.333Z,95446.22
2023-01-09T00:49:25.528Z,95450.50
2023-01-09T00:51:55.756Z,95449.94
2023-01-09T00:54:27.641Z,95452.31
2023-01-09T00:56:58.882Z,95466.06
2023-01-09T00:59:28.591Z,95470.16
2023-01-09T01:01:57.596Z,95469.44
2023-01-09T01:04:44.247Z,95467.84
2023-01-09T01:07:30.504Z,95475.75
2023-01-09T01:09:59.575Z,95468.13
2023-01-09T01:12:30.303Z,95470.69
2023-01-09T01:14:59.111Z,95470.22
2023-01-09T01:17:30.725Z,95470.84
2023-01-09T01:19:59.856Z,95469.28
2023-01-09T01:22:29.124Z,95469.91
2023-01-09T01:24:58.210Z,95467.78
2023-01-09T01:27:27.396Z,95469.50
2023-01-09T01:30:00.306Z,95466.84
2023-01-09T01:32:29.100Z,95457.84
2023-01-09T01:34:57.927Z,95450.50
2023-01-09T01:37:27.906Z,95447.28
2023-01-09T01:39:56.820Z,95450.97
2023-01-09T01:42:28.460Z,95442.53
2023-01-09T01:45:08.487Z,95444.13
2023-01-09T01:47:43.887Z,95449.25
2023-01-09T01:50:17.836Z,95449.78
2023-01-09T01:52:50.335Z,95444.53
2023-01-09T01:55:20.452Z,95435.28
2023-01-09T01:57:51.908Z,95441.38
2023-01-09T02:00:25.178Z,95430.38
2023-01-09T02:02:54.453Z,95433.75
2023-01-09T02:05:23.469Z,95440.84
2023-01-09T02:07:55.149Z,95432.00
2023-01-09T02:10:25.665Z,95427.97
2023-01-09T02:12:54.679Z,95422.06
2023-01-09T02:15:27.973Z,95397.38
2023-01-09T02:18:07.930Z,95396.75
2023-01-09T02:20:40.735Z,95394.09
2023-01-09T02:23:46.031Z,95388.50
2023-01-09T02:26:45.448Z,95407.91
2023-01-09T02:29:35.961Z,95409.06
2023-01-09T02:32:09.061Z,95424.69
2023-01-09T02:34:43.083Z,95420.34
2023-01-09T02:37:16.847Z,95412.00
2023-01-09T02:39:59.464Z,95416.22
2023-01-09T02:42:31.644Z,95437.81
2023-01-09T02:45:01.170Z,95422.88
2023-01-09T02:47:41.823Z,95414.00
2023-01-09T02:50:13.624Z,95429.97
2023-01-09T02:53:23.105Z,95427.94
2023-01-09T02:56:00.315Z,95426.69
2023-01-09T02:58:42.241Z,95424.47
2023-01-09T03:01:20.635Z,95417.38
2023-01-09T03:03:57.760Z,95413.09
2023-01-09T03:06:31.746Z,95418.16
2023-01-09T03:09:04.221Z,95413.19
2023-01-09T03:11:36.300Z,95403.63
2023-01-09T03:14:08.654Z,95409.69
2023-01-09T03:16:39.188Z,95420.69
2023-01-09T03:19:13.539Z,95421.19
2023-01-09T03:21:44.806Z,95412.06
2023-01-09T03:24:13.843Z,95410.66
2023-01-09T03:26:42.928Z,95408.44
2023-01-09T03:29:11.721Z,95421.28
2023-01-09T03:31:40.738Z,95420.50
2023-01-09T03:34:11.038Z,95410.75
2023-01-09T03:36:40.042Z,95412.00
2023-01-09T03:39:11.074Z,95411.44
2023-01-09T03:41:40.325Z,95400.81
2023-01-09T03:44:09.531Z,95410.94
2023-01-09T03:46:38.250Z,95411.81
2023-01-09T03:49:07.158Z,95412.59
2023-01-09T03:51:37.590Z,95413.25
2023-01-09T03:54:07.048Z,95419.25
2023-01-09T03:56:36.444Z,95421.84
2023-01-09T03:59:05.627Z,95422.97
2023-01-09T04:01:35.627Z,95411.78
2023-01-09T04:04:04.741Z,95422.78
2023-01-09T04:06:34.080Z,95424.28
2023-01-09T04:09:04.574Z,95419.97
2023-01-09T04:11:33.502Z,95410.63
2023-01-09T04:14:02.284Z,95423.91
2023-01-09T04:16:31.348Z,95420.97
2023-01-09T04:19:00.057Z,95425.44
2023-01-09T04:21:28.891Z,95422.78
2023-01-09T04:23:57.773Z,95422.41
2023-01-09T04:26:27.911Z,95420.78
2023-01-09T04:28:56.694Z,95434.34
2023-01-09T04:31:25.794Z,95440.63
2023-01-09T04:33:54.971Z,95443.47
2023-01-09T04:36:48.337Z,95453.53
2023-01-09T04:39:17.859Z,95458.28
2023-01-09T04:41:51.111Z,95462.25
2023-01-09T04:44:21.897Z,95462.81
2023-01-09T04:46:51.295Z,95454.75
2023-01-09T04:54:12.346Z,95470.94
2023-01-09T04:56:41.541Z,95470.94
2023-01-09T04:59:15.039Z,95478.34
2023-01-09T05:01:46.013Z,95478.81
2023-01-09T05:04:15.332Z,95478.81
2023-01-09T05:06:44.067Z,95488.97
2023-01-09T05:09:13.755Z,95491.63
2023-01-09T05:11:43.011Z,95493.06
2023-01-09T05:14:12.975Z,95502.38
2023-01-09T05:16:43.577Z,95498.75
2023-01-09T05:19:12.913Z,95497.09
2023-01-09T05:21:42.234Z,95497.09
2023-01-09T05:24:11.733Z,95496.44
2023-01-09T05:26:40.833Z,95506.00
2023-01-09T05:29:11.185Z,95513.38
2023-01-09T05:31:42.455Z,95518.34
2023-01-09T05:34:13.214Z,95529.13
2023-01-09T05:36:45.456Z,95532.22
2023-01-09T05:39:21.575Z,95545.00
2023-01-09T05:41:50.782Z,95547.09
2023-01-09T05:44:22.615Z,95546.28
2023-01-09T05:46:51.414Z,95552.41
2023-01-09T05:49:22.046Z,95548.66
2023-01-09T05:51:50.883Z,95547.66
2023-01-09T05:54:19.740Z,95566.56
2023-01-09T05:56:48.600Z,95560.00
2023-01-09T05:59:17.514Z,95560.00
2023-01-09T06:01:49.080Z,95560.72
2023-01-09T06:04:22.826Z,95566.16
2023-01-09T06:06:58.823Z,95572.25
2023-01-09T06:09:27.984Z,95575.84
2023-01-09T06:11:56.766Z,95575.09
2023-01-09T06:14:25.643Z,95571.19
2023-01-09T06:16:54.156Z,95574.75
2023-01-09T06:19:24.382Z,95570.41
2023-01-09T06:21:59.563Z,95585.81
2023-01-09T06:24:28.172Z,95583.22
2023-01-09T06:26:57.088Z,95591.34
2023-01-09T06:29:25.612Z,95593.72
2023-01-09T06:32:11.820Z,95592.31
2023-01-09T06:34:45.432Z,95590.34
2023-01-09T06:37:14.651Z,95596.44
2023-01-09T06:39:43.351Z,95608.28
2023-01-09T06:42:12.531Z,95625.56
2023-01-09T06:44:41.830Z,95623.88
2023-01-09T06:48:00.675Z,95626.84
2023-01-09T06:50:31.865Z,95638.69
2023-01-09T06:53:00.297Z,95633.34
2023-01-09T06:55:28.668Z,95643.59
2023-01-09T06:57:56.901Z,95639.88
2023-01-09T07:00:50.588Z,95649.13
2023-01-09T07:03:22.423Z,95649.13
2023-01-09T07:05:53.026Z,95656.22
2023-01-09T07:08:21.612Z,95662.34
2023-01-09T07:10:50.675Z,95678.84
2023-01-09T07:13:19.568Z,95675.19
2023-01-09T07:15:49.811Z,95681.72
2023-01-09T07:18:20.657Z,95686.72
2023-01-09T07:20:49.940Z,95700.84
2023-01-09T07:23:20.690Z,95705.38
2023-01-09T07:25:49.555Z,95721.78
2023-01-09T07:28:18.175Z,95726.31
2023-01-09T07:30:46.859Z,95719.38
2023-01-09T07:33:15.691Z,95733.59
2023-01-09T07:35:44.542Z,95735.75
2023-01-09T07:38:13.151Z,95741.47
2023-01-09T07:40:43.343Z,95737.00
2023-01-09T07:43:19.709Z,95749.13
2023-01-09T07:45:48.677Z,95752.94
2023-01-09T07:48:20.342Z,95764.19
2023-01-09T07:50:49.359Z,95760.53
2023-01-09T07:53:18.581Z,95773.63
2023-01-09T07:55:48.859Z,95767.81
2023-01-09T07:58:17.538Z,95786.47
2023-01-09T08:00:46.305Z,95796.00
2023-01-09T08:03:15.208Z,95795.44
2023-01-09T08:05:43.734Z,95802.13
2023-01-09T08:08:14.632Z,95793.06
2023-01-09T08:10:43.871Z,95788.00
2023-01-09T08:13:17.965Z,95790.69
2023-01-09T08:15:47.035Z,95791.00
2023-01-09T08:18:16.372Z,95799.47
2023-01-09T08:20:45.267Z,95794.66
2023-01-09T08:23:13.961Z,95786.16
2023-01-09T08:25:42.401Z,95810.03
2023-01-09T08:28:11.492Z,95816.38
2023-01-09T08:30:41.246Z,95812.84
2023-01-09T08:33:09.836Z,95828.44
2023-01-09T08:35:38.464Z,95825.19
2023-01-09T08:38:07.296Z,95833.59
2023-01-09T08:40:36.082Z,95839.44
2023-01-09T08:43:22.915Z,95834.31
2023-01-09T08:46:10.801Z,95831.88
2023-01-09T08:48:39.874Z,95836.81
2023-01-09T08:51:08.873Z,95839.19
2023-01-09T08:53:37.659Z,95843.94
2023-01-09T08:56:06.946Z,95835.06
2023-01-09T08:58:36.272Z,95842.97
2023-01-09T09:01:08.700Z,95851.66
2023-01-09T09:03:37.529Z,95850.06
2023-01-09T09:06:09.405Z,95851.19
2023-01-09T09:08:38.402Z,95848.00
2023-01-09T09:11:07.592Z,95853.53
2023-01-09T09:13:36.446Z,95857.22
2023-01-09T09:16:05.220Z,95860.97
2023-01-09T09:18:35.256Z,95861.16
2023-01-09T09:21:04.357Z,95855.56
2023-01-09T09:23:32.936Z,95861.75
2023-01-09T09:26:01.725Z,95856.09
2023-01-09T09:28:30.540Z,95843.09
2023-01-09T09:30:58.912Z,95858.50
2023-01-09T09:33:27.890Z,95850.59
2023-01-09T09:35:59.642Z,95862.84
2023-01-09T09:38:29.657Z,95858.66
2023-01-09T09:41:32.107Z,95868.53
2023-01-09T09:44:30.993Z,95879.72
2023-01-09T09:47:04.864Z,95890.56
2023-01-09T09:49:40.341Z,95889.19
2023-01-09T09:52:15.864Z,95890.47
2023-01-09T09:54:48.202Z,95894.31
2023-01-09T09:57:19.540Z,95898.41
2023-01-09T09:59:51.474Z,95889.16
2023-01-09T10:02:28.373Z,95902.75
2023-01-09T10:05:01.737Z,95890.72
2023-01-09T10:07:34.485Z,95892.38
2023-01-09T10:10:05.886Z,95887.56
2023-01-09T10:12:38.868Z,95884.38
2023-01-09T10:15:16.998Z,95875.81
2023-01-09T10:17:56.268Z,95876.91
2023-01-09T10:20:54.177Z,95870.41
2023-01-09T10:23:48.887Z,95869.84
2023-01-09T10:26:22.174Z,95869.03
2023-01-09T10:29:05.759Z,95875.16
2023-01-09T10:31:41.373Z,95877.88
2023-01-09T10:34:18.196Z,95889.84
2023-01-09T10:37:01.157Z,95887.00
2023-01-09T10:39:36.369Z,95883.44
2023-01-09T10:42:19.986Z,95878.31
2023-01-09T10:44:55.833Z,95872.97
2023-01-09T10:47:27.804Z,95873.78
2023-01-09T10:49:57.255Z,95875.38
2023-01-09T10:52:31.543Z,95876.72
2023-01-09T10:55:07.090Z,95881.78
2023-01-09T10:57:41.816Z,95883.06
2023-01-09T11:00:18.029Z,95887.63
2023-01-09T11:02:46.777Z,95883.34
2023-01-09T11:05:18.364Z,95886.22
2023-01-09T11:07:49.172Z,95874.00
2023-01-09T11:10:19.278Z,95879.75
2023-01-09T11:12:48.572Z,95890.47
2023-01-09T11:15:29.284Z,95893.69
2023-01-09T11:18:22.050Z,95884.28
2023-01-09T11:20:50.682Z,95887.28
2023-01-09T11:23:31.067Z,95888.06
2023-01-09T11:26:02.429Z,95879.75
2023-01-09T11:28:30.805Z,95874.41
2023-01-09T11:31:03.505Z,95870.97
2023-01-09T11:33:33.135Z,95874.41
2023-01-09T11:36:05.596Z,95881.84
2023-01-09T11:38:47.161Z,95884.69
2023-01-09T11:41:20.519Z,95883.53
2023-01-09T11:43:50.333Z,95889.66
2023-01-09T11:46:37.674Z,95892.22
2023-01-09T11:49:10.068Z,95893.25
2023-01-09T11:51:38.182Z,95897.97
2023-01-09T11:54:16.334Z,95899.75
2023-01-09T11:56:46.247Z,95891.47
2023-01-09T11:59:15.699Z,95882.91
2023-01-09T12:02:19.770Z,95888.72
2023-01-09T12:04:52.202Z,95889.72
2023-01-09T12:07:40.594Z,95893.94
2023-01-09T12:10:22.747Z,95898.19
2023-01-09T12:12:56.785Z,95891.28
2023-01-09T12:15:29.776Z,95899.78
2023-01-09T12:18:09.741Z,95897.13
2023-01-09T12:20:46.746Z,95904.03
2023-01-09T12:23:26.739Z,95905.53
2023-01-09T12:26:01.655Z,95906.50
2023-01-09T12:28:59.123Z,95897.63
2023-01-09T12:31:37.401Z,95902.88
2023-01-09T12:34:15.596Z,95905.22
2023-01-09T12:36:49.933Z,95907.72
2023-01-09T12:39:24.997Z,95898.03
2023-01-09T12:42:09.869Z,95904.94
2023-01-09T12:44:50.616Z,95899.59
2023-01-09T12:47:38.634Z,95902.75
2023-01-09T12:50:21.983Z,95904.16
2023-01-09T12:52:58.545Z,95903.94
2023-01-09T12:55:28.506Z,95902.97
2023-01-09T12:57:57.558Z,95905.63
2023-01-09T13:00:30.653Z,95896.66
2023-01-09T13:03:11.952Z,95905.34
2023-01-09T13:05:44.481Z,95896.44
2023-01-09T13:08:16.504Z,95890.19
2023-01-09T13:10:47.712Z,95886.38
2023-01-09T13:13:21.094Z,95887.34
2023-01-09T13:15:53.629Z,95886.44
2023-01-09T13:18:25.750Z,95882.19
2023-01-09T13:20:58.116Z,95874.19
2023-01-09T13:23:32.208Z,95876.47
2023-01-09T13:26:01.399Z,95871.91
2023-01-09T13:28:33.325Z,95870.13
2023-01-09T13:31:42.569Z,95859.28
2023-01-09T13:34:21.908Z,95869.34
2023-01-09T13:36:51.810Z,95861.63
2023-01-09T13:39:24.244Z,95864.81
2023-01-09T13:42:13.696Z,95857.59
2023-01-09T13:44:42.582Z,95854.31
2023-01-09T13:47:21.483Z,95860.53
2023-01-09T13:50:06.295Z,95864.19
2023-01-09T13:52:37.784Z,95870.13
2023-01-09T13:55:31.787Z,95862.72
2023-01-09T13:58:18.422Z,95867.59
2023-01-09T14:00:52.049Z,95871.22
2023-01-09T14:03:26.152Z,95869.16
2023-01-09T14:06:16.351Z,95866.00
2023-01-09T14:08:46.681Z,95864.41
2023-01-09T14:11:27.654Z,95863.44
2023-01-09T14:14:06.249Z,95866.38
2023-01-09T14:16:38.136Z,95866.38
2023-01-09T14:19:22.501Z,95862.34
2023-01-09T14:21:54.556Z,95866.78
2023-01-09T14:24:26.382Z,95858.78
2023-01-09T14:26:57.195Z,95865.19
2023-01-09T14:29:45.661Z,95860.88
2023-01-09T14:32:45.327Z,95865.03
2023-01-09T14:35:22.663Z,95867.41
2023-01-09T14:38:02.839Z,95870.63
2023-01-09T14:40:32.371Z,95874.50
2023-01-09T14:43:14.543Z,95869.94
2023-01-09T14:45:46.094Z,95888.13
2023-01-09T14:48:16.000Z,95882.59
2023-01-09T14:50:51.139Z,95889.31
2023-01-09T14:53:21.938Z,95889.13
2023-01-09T14:55:52.666Z,95892.28
2023-01-09T14:58:22.939Z,95902.34
2023-01-09T15:01:17.139Z,95900.97
2023-01-09T15:03:49.636Z,95901.94
2023-01-09T15:06:22.202Z,95911.06
2023-01-09T15:08:55.496Z,95908.69
2023-01-09T15:11:24.307Z,95907.09
2023-01-09T15:13:54.531Z,95911.63
2023-01-09T15:16:24.681Z,95908.38
2023-01-09T15:18:55.991Z,95908.88
2023-01-09T15:21:27.225Z,95910.75
2023-01-09T15:23:55.863Z,95902.22
2023-01-09T15:26:27.168Z,95904.91
2023-01-09T15:29:03.651Z,95922.25
2023-01-09T15:31:33.248Z,95913.56
2023-01-09T15:34:05.211Z,95918.91
2023-01-09T15:36:39.971Z,95916.31
2023-01-09T15:39:08.725Z,95919.50
2023-01-09T15:41:56.125Z,95922.25
2023-01-09T15:44:26.328Z,95931.34
2023-01-09T15:46:58.459Z,95930.34
2023-01-09T15:49:27.715Z,95937.53
2023-01-09T15:51:57.679Z,95942.56
2023-01-09T15:54:29.816Z,95935.66
2023-01-09T15:57:34.192Z,95940.31
2023-01-09T16:00:39.437Z,95950.28
2023-01-09T16:03:20.772Z,95947.59
2023-01-09T16:05:53.131Z,95953.00
2023-01-09T16:08:25.644Z,95955.16
2023-01-09T16:10:55.589Z,95955.75
2023-01-09T16:13:25.778Z,95955.25
2023-01-09T16:15:54.724Z,95956.31
2023-01-09T16:18:32.479Z,95957.44
2023-01-09T16:21:25.741Z,95956.41
2023-01-09T16:23:57.889Z,95962.75
2023-01-09T16:26:28.216Z,95953.47
2023-01-09T16:28:57.114Z,95962.53
2023-01-09T16:31:27.436Z,95973.97
2023-01-09T16:33:58.919Z,95976.94
2023-01-09T16:36:28.181Z,95967.66
2023-01-09T16:39:00.907Z,95971.41
2023-01-09T16:41:47.054Z,95977.81
2023-01-09T16:44:15.643Z,95972.47
2023-01-09T16:46:44.943Z,95981.25
2023-01-09T16:49:17.743Z,95974.13
2023-01-09T16:51:46.156Z,95982.13
2023-01-09T16:54:16.347Z,95993.06
2023-01-09T16:56:48.515Z,95992.28
2023-01-09T16:59:20.672Z,95994.41
2023-01-09T17:01:51.458Z,96004.00
2023-01-09T17:04:21.398Z,96008.59
2023-01-09T17:06:50.282Z,96006.81
2023-01-09T17:09:24.069Z,96017.97
2023-01-09T17:11:53.502Z,96021.91
2023-01-09T17:14:21.851Z,96027.56
2023-01-09T17:16:50.395Z,96030.25
2023-01-09T17:19:20.686Z,96035.03
2023-01-09T17:21:49.400Z,96034.56
2023-01-09T17:24:37.248Z,96040.69
2023-01-09T17:27:23.474Z,96052.16
2023-01-09T17:29:52.171Z,96038.75
2023-01-09T17:32:20.705Z,96047.75
2023-01-09T17:34:49.251Z,96056.69
2023-01-09T17:37:20.321Z,96055.09
2023-01-09T17:39:50.192Z,96051.56
2023-01-09T17:42:18.767Z,96052.38
2023-01-09T17:44:46.993Z,96052.94
2023-01-09T17:47:16.294Z,96060.66
2023-01-09T17:49:44.754Z,96057.41
2023-01-09T17:52:12.942Z,96072.66
2023-01-09T17:54:43.382Z,96077.19
2023-01-09T17:57:16.460Z,96082.84
2023-01-09T17:59:44.936Z,96080.47
2023-01-09T18:02:17.830Z,96089.56
2023-01-09T18:04:46.373Z,96081.84
2023-01-09T18:07:16.028Z,96088.53
2023-01-09T18:09:44.450Z,96086.94
2023-01-09T18:12:14.721Z,96100.25
2023-01-09T18:14:43.564Z,96111.41
2023-01-09T18:17:13.454Z,96108.81
2023-01-09T18:19:42.248Z,96117.31
2023-01-09T18:22:10.647Z,96125.31
2023-01-09T18:24:39.807Z,96123.44
2023-01-09T18:27:08.509Z,96129.53
2023-01-09T18:29:38.549Z,96139.69
2023-01-09T18:32:07.145Z,96147.19
2023-01-09T18:34:35.611Z,96151.50
2023-01-09T18:37:03.943Z,96151.94
2023-01-09T18:39:32.507Z,96167.59
2023-01-09T18:42:04.331Z,96167.31
2023-01-09T18:44:32.815Z,96164.66
2023-01-09T18:47:02.722Z,96164.13
2023-01-09T18:49:31.135Z,96161.34
2023-01-09T18:51:59.949Z,96167.13
2023-01-09T18:54:28.487Z,96166.94
2023-01-09T18:56:57.127Z,96154.22
2023-01-09T18:59:25.686Z,96165.94
2023-01-09T19:01:54.290Z,96162.53
2023-01-09T19:04:24.233Z,96170.09
2023-01-09T19:06:52.673Z,96175.97
2023-01-09T19:09:21.301Z,96171.75
2023-01-09T19:11:49.883Z,96177.34
2023-01-09T19:14:18.982Z,96174.38
2023-01-09T19:16:47.634Z,96178.16
2023-01-09T19:19:16.178Z,96178.03
2023-01-09T19:21:46.533Z,96183.63
2023-01-09T19:24:15.139Z,96193.75
2023-01-09T19:26:43.737Z,96197.94
2023-01-09T19:29:12.113Z,96192.66
2023-01-09T19:31:40.552Z,96205.97
2023-01-09T19:34:09.265Z,96207.34
2023-01-09T19:36:37.769Z,96220.06
2023-01-09T19:39:08.703Z,96207.66
2023-01-09T19:41:37.639Z,96217.53
2023-01-09T19:44:06.494Z,96222.06
2023-01-09T19:46:35.598Z,96223.66
2023-01-09T19:49:06.177Z,96223.66
2023-01-09T19:51:35.402Z,96238.56
2023-01-09T19:56:38.127Z,96245.00
2023-01-09T19:59:07.114Z,96244.19
2023-01-09T20:01:36.661Z,96245.00
2023-01-09T20:04:10.126Z,96255.13
2023-01-09T20:06:41.908Z,96253.53
2023-01-09T20:09:12.453Z,96260.41
2023-01-09T20:11:44.820Z,96268.44
2023-01-09T20:14:14.583Z,96273.47
2023-01-09T20:16:44.155Z,96261.81
2023-01-09T20:19:14.363Z,96263.41
2023-01-09T20:21:43.911Z,96267.66
2023-01-09T20:24:16.825Z,96270.34
2023-01-09T20:26:47.479Z,96281.56
2023-01-09T20:29:17.015Z,96284.72
2023-01-09T20:31:48.578Z,96287.91
2023-01-09T20:34:17.479Z,96289.25
2023-01-09T20:36:46.615Z,96291.91
2023-01-09T20:39:15.372Z,96286.41
2023-01-09T20:41:44.223Z,96289.56
2023-01-09T20:44:15.767Z,96283.72
2023-01-09T20:46:47.521Z,96285.06
2023-01-09T20:49:18.319Z,96279.78
2023-01-09T20:51:48.685Z,96278.75
2023-01-09T20:54:18.836Z,96283.50
2023-01-09T20:56:47.568Z,96292.31
2023-01-09T20:59:20.241Z,96293.09
2023-01-09T21:01:48.843Z,96301.88
2023-01-09T21:04:18.171Z,96307.47
2023-01-09T21:06:49.648Z,96324.44
2023-01-09T21:09:18.926Z,96318.56
2023-01-09T21:11:47.471Z,96323.38
2023-01-09T21:14:42.499Z,96317.25
2023-01-09T21:17:11.255Z,96319.72
2023-01-09T21:19:42.879Z,96328.75
2023-01-09T21:22:11.611Z,96342.03
2023-01-09T21:24:40.400Z,96335.63
2023-01-09T21:27:09.328Z,96338.81
2023-01-09T21:29:38.303Z,96336.16
2023-01-09T21:32:08.361Z,96339.38
2023-01-09T21:34:37.310Z,96346.28
2023-01-09T21:37:06.178Z,96352.41
2023-01-09T21:39:35.289Z,96356.94
2023-01-09T21:42:21.425Z,96364.63
2023-01-09T21:45:07.369Z,96365.69
2023-01-09T21:47:37.313Z,96371.28
2023-01-09T21:50:06.636Z,96378.16
2023-01-09T21:52:37.902Z,96376.03
2023-01-09T21:55:07.996Z,96382.41
2023-01-09T21:57:39.641Z,96381.63
2023-01-09T22:00:09.776Z,96382.41
2023-01-09T22:02:43.478Z,96383.47
2023-01-09T22:05:12.474Z,96380.28
2023-01-09T22:07:41.351Z,96382.41
2023-01-09T22:10:11.364Z,96396.25
2023-01-09T22:13:00.103Z,96393.84
2023-01-09T22:15:29.347Z,96397.84
2023-01-09T22:17:59.704Z,96403.72
2023-01-09T22:20:28.720Z,96405.28
2023-01-09T22:22:57.347Z,96415.94
2023-01-09T22:25:26.148Z,96419.09
2023-01-09T22:27:54.887Z,96421.75
2023-01-09T22:30:23.682Z,96422.28
2023-01-09T22:32:53.020Z,96422.28
2023-01-09T22:35:23.023Z,96431.88
2023-01-09T22:37:54.690Z,96426.28
2023-01-09T22:40:24.613Z,96431.31
2023-01-09T22:42:53.792Z,96433.47
2023-01-09T22:45:23.107Z,96428.41
2023-01-09T22:47:51.922Z,96435.56
2023-01-09T22:50:22.312Z,96436.63
2023-01-09T22:52:51.731Z,96430.81
2023-01-09T22:55:20.361Z,96431.59
2023-01-09T22:57:49.420Z,96430.53
2023-01-09T23:00:28.871Z,96439.59
2023-01-09T23:02:57.863Z,96445.94
2023-01-09T23:05:28.277Z,96440.88
2023-01-09T23:07:57.349Z,96436.13
2023-01-09T23:10:26.138Z,96441.44
2023-01-09T23:12:55.146Z,96452.06
2023-01-09T23:15:28.240Z,96449.41
2023-01-09T23:18:00.169Z,96451.53
2023-01-09T23:20:30.634Z,96447.00
2023-01-09T23:23:00.142Z,96447.81
2023-01-09T23:25:28.932Z,96455.78
2023-01-09T23:27:58.436Z,96448.34
2023-01-09T23:30:27.221Z,96456.56
2023-01-09T23:32:56.064Z,96462.69
2023-01-09T23:35:24.907Z,96470.91
2023-01-09T23:37:55.011Z,96464.00
2023-01-09T23:40:23.816Z,96471.19
2023-01-09T23:43:09.706Z,96479.69
2023-01-09T23:45:42.774Z,96485.00
2023-01-09T23:48:13.691Z,96492.47
2023-01-09T23:50:44.764Z,96479.41
2023-01-09T23:53:14.883Z,96493.50
2023-01-09T23:55:43.287Z,96494.56
2023-01-09T23:58:11.970Z,96502.03
